Time,TemperatureF,DewpointF,PressureIn,WindDirection,WindDirectionDegrees,WindSpeedMPH,WindSpeedGustMPH,Humidity,HourlyPrecipIn,Conditions,Clouds,dailyrainin,SolarRadiationWatts/m^2,SoftwareType,DateUTC
2013-10-23 14:42:00,61.0,26.0,-100.00,WSW,245,2.0,6.0,26,-99.99,,,0.00,578.000000,,2013-10-23 20:42:00,
2013-10-23 14:52:00,61.0,26.0,-100.00,WSW,245,2.0,6.0,26,-99.99,,,0.00,578.000000,,2013-10-23 20:52:00,
2013-10-23 15:02:00,61.0,26.0,-100.00,WSW,245,2.0,6.0,26,-99.99,,,0.00,578.000000,,2013-10-23 21:02:00,
2013-10-23 15:03:00,63.0,25.0,-100.00,NW,320,3.0,7.0,23,0.00,,,0.00,525.000000,,2013-10-23 21:03:00,
2013-10-23 15:22:00,63.0,25.0,-100.00,NW,320,3.0,7.0,23,0.00,,,0.00,525.000000,,2013-10-23 21:22:00,
2013-10-23 15:34:00,63.0,25.0,-100.00,NW,320,3.0,7.0,23,0.00,,,0.00,525.000000,,2013-10-23 21:34:00,
2013-10-23 15:43:00,63.0,25.0,-100.00,NW,320,3.0,7.0,23,0.00,,,0.00,525.000000,,2013-10-23 21:43:00,
2013-10-23 15:54:00,63.0,25.0,-100.00,NW,320,3.0,7.0,23,0.00,,,0.00,525.000000,,2013-10-23 21:54:00,
2013-10-23 16:03:00,64.0,23.0,-100.00,NNE,18,1.0,8.0,21,0.00,,,0.00,350.000000,,2013-10-23 22:03:00,
2013-10-23 16:43:00,64.0,23.0,-100.00,NNE,18,1.0,8.0,21,0.00,,,0.00,350.000000,,2013-10-23 22:43:00,
2013-10-23 16:54:00,64.0,23.0,-100.00,NNE,18,1.0,8.0,21,0.00,,,0.00,350.000000,,2013-10-23 22:54:00,
2013-10-23 17:42:00,59.0,25.0,-100.00,WSW,252,1.0,6.0,27,0.00,,,0.00,165.000000,,2013-10-23 23:42:00,
2013-10-23 17:52:00,59.0,25.0,-100.00,WSW,252,1.0,6.0,27,0.00,,,0.00,165.000000,,2013-10-23 23:52:00,
2013-10-23 18:02:00,59.0,25.0,-100.00,WSW,252,1.0,6.0,27,0.00,,,0.00,165.000000,,2013-10-24 00:02:00,
2013-10-23 18:22:00,52.0,27.0,-100.00,NNW,331,0.0,4.0,37,0.00,,,0.00,34.000000,,2013-10-24 00:22:00,
2013-10-23 18:32:00,52.0,27.0,-100.00,NNW,331,0.0,4.0,37,0.00,,,0.00,34.000000,,2013-10-24 00:32:00,
2013-10-23 18:42:00,52.0,27.0,-100.00,NNW,331,0.0,4.0,37,0.00,,,0.00,34.000000,,2013-10-24 00:42:00,
2013-10-23 18:52:00,52.0,27.0,-100.00,NNW,331,0.0,4.0,37,0.00,,,0.00,34.000000,,2013-10-24 00:52:00,
2013-10-23 19:01:00,52.0,27.0,-100.00,NNW,331,0.0,4.0,37,0.00,,,0.00,34.000000,,2013-10-24 01:01:00,
2013-10-23 19:42:00,44.0,25.0,-100.00,South,169,0.0,1.0,46,0.00,,,0.00,3.000000,,2013-10-24 01:42:00,
2013-10-23 19:52:00,44.0,25.0,-100.00,South,169,0.0,1.0,46,0.00,,,0.00,3.000000,,2013-10-24 01:52:00,
2013-10-23 20:02:00,44.0,25.0,-100.00,South,169,0.0,1.0,46,0.00,,,0.00,3.000000,,2013-10-24 02:02:00,
2013-10-23 20:22:00,44.0,24.0,-100.00,ESE,115,1.0,5.0,45,0.00,,,0.00,0.000000,,2013-10-24 02:22:00,
2013-10-23 20:32:00,44.0,24.0,-100.00,ESE,115,1.0,5.0,45,0.00,,,0.00,0.000000,,2013-10-24 02:32:00,
2013-10-23 20:42:00,44.0,24.0,-100.00,ESE,115,1.0,5.0,45,0.00,,,0.00,0.000000,,2013-10-24 02:42:00,